RUK5WE GMMX-EGBB
Flight info
| Callsign | RUK5WE |
|---|---|
| Flight time | 3h 6m |
| Altitude | 36000 |
| Route | MABAP UR722 AMSEL DCT PINEK DCT KORUL DCT ANNET DCT EPACE DCT CARWI N91 FIGZI |
| Aircraft | B738/M-SDE2E3FGHIRWXY/LB1 |
Departure
| Time | 2026-04-29 17:02 |
|---|---|
| Airport | Marrakesh Menara Airport (GMMX) |
Arrival
| Time | 2026-04-29 20:08 |
|---|---|
| Airport | Birmingham Airport (EGBB) |
| Time | Latitude | Longitude | Altitude | Speed | Heading |
|---|---|---|---|---|---|
| 2026-04-29 16:40 | 31.60112 | -8.02319 | 1539 ft | 0 kts | 276° |
| 2026-04-29 16:54 | 31.60112 | -8.02318 | 1539 ft | 1 kts | 276° |
| 2026-04-29 16:55 | 31.60110 | -8.02301 | 1531 ft | 3 kts | 276° |
| 2026-04-29 16:55 | 31.60108 | -8.02278 | 1534 ft | 3 kts | 276° |
| 2026-04-29 16:55 | 31.60106 | -8.02258 | 1539 ft | 3 kts | 283° |
| 2026-04-29 16:55 | 31.60100 | -8.02238 | 1537 ft | 3 kts | 316° |
| 2026-04-29 16:56 | 31.60085 | -8.02227 | 1531 ft | 3 kts | 356° |
| 2026-04-29 16:56 | 31.60065 | -8.02228 | 1532 ft | 2 kts | 7° |
| 2026-04-29 16:56 | 31.60057 | -8.02229 | 1532 ft | 1 kts | 7° |
| 2026-04-29 16:56 | 31.60056 | -8.02230 | 1532 ft | 0 kts | 7° |
| 2026-04-29 16:58 | 31.60068 | -8.02228 | 1534 ft | 5 kts | 6° |
| 2026-04-29 16:59 | 31.60125 | -8.02221 | 1539 ft | 11 kts | 6° |
| 2026-04-29 16:59 | 31.60198 | -8.02212 | 1539 ft | 11 kts | 6° |
| 2026-04-29 16:59 | 31.60270 | -8.02201 | 1539 ft | 10 kts | 7° |
| 2026-04-29 16:59 | 31.60342 | -8.02190 | 1538 ft | 11 kts | 7° |
| 2026-04-29 17:00 | 31.60415 | -8.02170 | 1532 ft | 10 kts | 9° |
| 2026-04-29 17:00 | 31.60496 | -8.02159 | 1534 ft | 13 kts | 5° |
| 2026-04-29 17:00 | 31.60558 | -8.02156 | 1538 ft | 7 kts | 317° |
| 2026-04-29 17:00 | 31.60565 | -8.02213 | 1538 ft | 7 kts | 274° |
| 2026-04-29 17:01 | 31.60576 | -8.02349 | 1538 ft | 41 kts | 275° |
| 2026-04-29 17:01 | 31.60630 | -8.02968 | 1535 ft | 109 kts | 276° |
| 2026-04-29 17:01 | 31.60730 | -8.04084 | 1532 ft | 164 kts | 276° |
| 2026-04-29 17:01 | 31.60856 | -8.05496 | 2083 ft | 171 kts | 278° |
| 2026-04-29 17:02 | 31.60977 | -8.06848 | 2968 ft | 168 kts | 277° |
| 2026-04-29 17:02 | 31.61102 | -8.08253 | 3534 ft | 177 kts | 276° |
| 2026-04-29 17:02 | 31.61229 | -8.09749 | 4007 ft | 192 kts | 277° |
| 2026-04-29 17:02 | 31.61366 | -8.11367 | 4508 ft | 205 kts | 277° |
| 2026-04-29 17:03 | 31.61510 | -8.13084 | 4900 ft | 218 kts | 277° |
| 2026-04-29 17:03 | 31.61675 | -8.14924 | 5243 ft | 234 kts | 277° |
| 2026-04-29 17:03 | 31.62151 | -8.16744 | 5847 ft | 237 kts | 304° |
| 2026-04-29 17:03 | 31.63326 | -8.18095 | 6531 ft | 239 kts | 330° |
| 2026-04-29 17:04 | 31.64892 | -8.18761 | 7131 ft | 244 kts | 352° |
| 2026-04-29 17:04 | 31.66592 | -8.18877 | 7726 ft | 251 kts | 358° |
| 2026-04-29 17:04 | 31.68400 | -8.18914 | 8072 ft | 272 kts | 358° |
| 2026-04-29 17:04 | 31.70368 | -8.18940 | 8377 ft | 290 kts | 359° |
| 2026-04-29 17:05 | 31.72419 | -8.18966 | 8958 ft | 298 kts | 358° |
| 2026-04-29 17:05 | 31.74509 | -8.18995 | 9623 ft | 303 kts | 358° |
| 2026-04-29 17:05 | 31.76636 | -8.19027 | 10212 ft | 311 kts | 358° |
| 2026-04-29 17:05 | 31.78887 | -8.19066 | 10389 ft | 334 kts | 358° |
| 2026-04-29 17:06 | 31.81274 | -8.19110 | 10693 ft | 350 kts | 358° |
| 2026-04-29 17:06 | 31.83730 | -8.19155 | 11205 ft | 357 kts | 357° |
| 2026-04-29 17:06 | 31.86223 | -8.19201 | 11915 ft | 358 kts | 357° |
| 2026-04-29 17:06 | 31.88728 | -8.19225 | 12625 ft | 361 kts | 359° |
| 2026-04-29 17:07 | 31.91255 | -8.19104 | 13280 ft | 365 kts | 2° |
| 2026-04-29 17:07 | 31.92940 | -8.18978 | 13722 ft | 368 kts | 2° |
| 2026-04-29 17:07 | 31.96350 | -8.18692 | 14551 ft | 372 kts | 2° |
| 2026-04-29 17:07 | 31.98948 | -8.18473 | 15192 ft | 376 kts | 2° |
| 2026-04-29 17:08 | 32.01571 | -8.18259 | 15829 ft | 379 kts | 2° |
| 2026-04-29 17:08 | 32.04217 | -8.18051 | 16471 ft | 383 kts | 2° |
| 2026-04-29 17:08 | 32.06892 | -8.17847 | 17085 ft | 387 kts | 1° |
| 2026-04-29 17:08 | 32.09590 | -8.17646 | 17705 ft | 391 kts | 1° |
| 2026-04-29 17:09 | 32.12315 | -8.17445 | 18348 ft | 393 kts | 1° |
| 2026-04-29 17:09 | 32.15053 | -8.17246 | 18886 ft | 397 kts | 1° |
| 2026-04-29 17:09 | 32.17822 | -8.17044 | 19425 ft | 400 kts | 1° |
| 2026-04-29 17:09 | 32.20621 | -8.16841 | 19967 ft | 404 kts | 1° |
| 2026-04-29 17:10 | 32.23435 | -8.16637 | 20521 ft | 406 kts | 1° |
| 2026-04-29 17:10 | 32.26279 | -8.16430 | 21054 ft | 410 kts | 1° |
| 2026-04-29 17:10 | 32.29141 | -8.16222 | 21567 ft | 414 kts | 1° |
| 2026-04-29 17:10 | 32.32020 | -8.16012 | 22082 ft | 417 kts | 1° |
| 2026-04-29 17:11 | 32.34935 | -8.15800 | 22588 ft | 420 kts | 1° |
| 2026-04-29 17:11 | 32.37866 | -8.15587 | 23090 ft | 424 kts | 1° |
| 2026-04-29 17:11 | 32.40778 | -8.15374 | 23559 ft | 427 kts | 1° |
| 2026-04-29 17:11 | 32.43759 | -8.15157 | 23964 ft | 430 kts | 1° |
| 2026-04-29 17:12 | 32.46753 | -8.14938 | 24396 ft | 432 kts | 1° |
| 2026-04-29 17:12 | 32.49763 | -8.14718 | 24817 ft | 434 kts | 1° |
| 2026-04-29 17:12 | 32.52791 | -8.14496 | 25221 ft | 437 kts | 1° |
| 2026-04-29 17:12 | 32.53824 | -8.14420 | 25357 ft | 438 kts | 1° |
| 2026-04-29 17:13 | 32.58915 | -8.14048 | 26017 ft | 442 kts | 1° |
| 2026-04-29 17:13 | 32.60955 | -8.13899 | 26268 ft | 444 kts | 1° |
| 2026-04-29 17:13 | 32.64040 | -8.13673 | 26650 ft | 446 kts | 0° |
| 2026-04-29 17:13 | 32.68165 | -8.13370 | 27157 ft | 450 kts | 0° |
| 2026-04-29 17:14 | 32.71297 | -8.13140 | 27532 ft | 452 kts | 0° |
| 2026-04-29 17:14 | 32.73421 | -8.12984 | 27779 ft | 454 kts | 0° |
| 2026-04-29 17:14 | 32.77608 | -8.12676 | 28246 ft | 457 kts | 0° |
| 2026-04-29 17:14 | 32.80789 | -8.12442 | 28593 ft | 459 kts | 0° |
| 2026-04-29 17:15 | 32.83985 | -8.12207 | 28927 ft | 462 kts | 0° |
| 2026-04-29 17:15 | 32.86128 | -8.12049 | 29145 ft | 463 kts | 0° |
| 2026-04-29 17:15 | 32.89359 | -8.11811 | 29475 ft | 466 kts | 0° |
| 2026-04-29 17:15 | 32.92604 | -8.11571 | 29808 ft | 468 kts | 0° |
| 2026-04-29 17:16 | 32.95859 | -8.11331 | 30103 ft | 470 kts | 0° |
| 2026-04-29 17:16 | 32.99124 | -8.11089 | 30372 ft | 472 kts | 0° |
| 2026-04-29 17:16 | 33.02413 | -8.10846 | 30681 ft | 473 kts | 0° |
| 2026-04-29 17:16 | 33.05689 | -8.10603 | 31069 ft | 471 kts | 0° |
| 2026-04-29 17:17 | 33.08956 | -8.10359 | 31484 ft | 469 kts | 0° |
| 2026-04-29 17:17 | 33.12201 | -8.10118 | 31850 ft | 468 kts | 0° |
| 2026-04-29 17:17 | 33.15452 | -8.09877 | 32182 ft | 468 kts | 0° |
| 2026-04-29 17:17 | 33.18702 | -8.09635 | 32527 ft | 467 kts | 0° |
| 2026-04-29 17:18 | 33.21945 | -8.09394 | 32889 ft | 466 kts | 0° |
| 2026-04-29 17:18 | 33.25181 | -8.09154 | 33241 ft | 465 kts | 0° |
| 2026-04-29 17:18 | 33.28373 | -8.08917 | 33566 ft | 464 kts | 0° |
| 2026-04-29 17:18 | 33.31640 | -8.08674 | 33893 ft | 464 kts | 0° |
| 2026-04-29 17:19 | 33.34816 | -8.08437 | 34181 ft | 463 kts | 0° |
| 2026-04-29 17:19 | 33.38031 | -8.08197 | 34468 ft | 462 kts | 0° |
| 2026-04-29 17:19 | 33.41240 | -8.07958 | 34762 ft | 461 kts | 0° |
| 2026-04-29 17:19 | 33.44437 | -8.07719 | 35051 ft | 460 kts | 360° |
| 2026-04-29 17:20 | 33.47622 | -8.07481 | 35307 ft | 459 kts | 360° |
| 2026-04-29 17:20 | 33.50808 | -8.07243 | 35555 ft | 459 kts | 360° |
| 2026-04-29 17:20 | 33.53995 | -8.07005 | 35797 ft | 458 kts | 360° |
| 2026-04-29 17:20 | 33.57179 | -8.06766 | 35960 ft | 459 kts | 360° |
| 2026-04-29 17:21 | 33.63585 | -8.06288 | 35948 ft | 461 kts | 360° |
| 2026-04-29 17:21 | 33.69928 | -8.05810 | 35958 ft | 456 kts | 359° |
| 2026-04-29 17:22 | 33.76241 | -8.05334 | 35961 ft | 454 kts | 359° |
| 2026-04-29 17:22 | 33.82540 | -8.04860 | 35956 ft | 453 kts | 359° |
| 2026-04-29 17:23 | 33.88827 | -8.04387 | 35958 ft | 452 kts | 359° |
| 2026-04-29 17:23 | 33.95114 | -8.03913 | 35955 ft | 452 kts | 359° |
| 2026-04-29 17:24 | 34.01406 | -8.03437 | 35966 ft | 453 kts | 359° |
| 2026-04-29 17:24 | 34.07672 | -8.02963 | 35961 ft | 454 kts | 359° |
| 2026-04-29 17:25 | 34.13979 | -8.02485 | 35962 ft | 455 kts | 359° |
| 2026-04-29 17:25 | 34.20301 | -8.02004 | 35961 ft | 455 kts | 359° |
| 2026-04-29 17:26 | 34.26639 | -8.01522 | 35954 ft | 456 kts | 359° |
| 2026-04-29 17:26 | 34.32979 | -8.01039 | 35959 ft | 456 kts | 359° |
| 2026-04-29 17:27 | 34.39288 | -8.00557 | 35953 ft | 456 kts | 359° |
| 2026-04-29 17:27 | 34.45626 | -8.00072 | 35962 ft | 456 kts | 359° |
| 2026-04-29 17:28 | 34.51968 | -7.99587 | 35972 ft | 456 kts | 359° |
| 2026-04-29 17:28 | 34.58298 | -7.99101 | 35950 ft | 455 kts | 359° |
| 2026-04-29 17:29 | 34.64621 | -7.98616 | 35959 ft | 454 kts | 359° |
| 2026-04-29 17:29 | 34.70883 | -7.98134 | 35960 ft | 454 kts | 359° |
| 2026-04-29 17:30 | 34.77180 | -7.97649 | 35972 ft | 453 kts | 359° |
| 2026-04-29 17:30 | 34.83478 | -7.97163 | 35960 ft | 452 kts | 359° |
| 2026-04-29 17:31 | 34.89767 | -7.96678 | 35959 ft | 452 kts | 359° |
| 2026-04-29 17:31 | 34.95999 | -7.96195 | 35959 ft | 451 kts | 359° |
| 2026-04-29 17:32 | 35.02261 | -7.95710 | 35968 ft | 451 kts | 359° |
| 2026-04-29 17:32 | 35.08520 | -7.95225 | 35960 ft | 450 kts | 359° |
| 2026-04-29 17:33 | 35.14782 | -7.94738 | 35961 ft | 450 kts | 359° |
| 2026-04-29 17:33 | 35.21030 | -7.94252 | 35961 ft | 450 kts | 359° |
| 2026-04-29 17:34 | 35.27277 | -7.93765 | 35969 ft | 450 kts | 358° |
| 2026-04-29 17:34 | 35.33485 | -7.93280 | 35960 ft | 450 kts | 358° |
| 2026-04-29 17:35 | 35.42863 | -7.92546 | 35956 ft | 450 kts | 358° |
| 2026-04-29 17:36 | 35.49112 | -7.92056 | 35959 ft | 450 kts | 358° |
| 2026-04-29 17:36 | 35.55376 | -7.91565 | 35960 ft | 451 kts | 358° |
| 2026-04-29 17:37 | 35.61638 | -7.91072 | 35958 ft | 451 kts | 358° |
| 2026-04-29 17:37 | 35.67901 | -7.90579 | 35960 ft | 451 kts | 358° |
| 2026-04-29 17:38 | 35.74166 | -7.90085 | 35961 ft | 451 kts | 358° |
| 2026-04-29 17:38 | 35.80431 | -7.89590 | 35956 ft | 451 kts | 358° |
| 2026-04-29 17:39 | 35.86700 | -7.89093 | 35954 ft | 451 kts | 358° |
| 2026-04-29 17:39 | 35.92927 | -7.88600 | 35958 ft | 451 kts | 358° |
| 2026-04-29 17:40 | 35.99176 | -7.88405 | 35975 ft | 445 kts | 350° |
| 2026-04-29 17:40 | 36.05340 | -7.89101 | 35960 ft | 444 kts | 348° |
| 2026-04-29 17:41 | 36.11481 | -7.89893 | 35956 ft | 444 kts | 348° |
| 2026-04-29 17:41 | 36.17640 | -7.90640 | 35956 ft | 444 kts | 348° |
| 2026-04-29 17:42 | 36.23761 | -7.91344 | 35953 ft | 444 kts | 349° |
| 2026-04-29 17:42 | 36.29921 | -7.92039 | 35958 ft | 444 kts | 348° |
| 2026-04-29 17:43 | 36.36086 | -7.92734 | 35946 ft | 444 kts | 348° |
| 2026-04-29 17:43 | 36.42253 | -7.93430 | 35954 ft | 444 kts | 348° |
| 2026-04-29 17:44 | 36.48407 | -7.94128 | 35983 ft | 444 kts | 348° |
| 2026-04-29 17:44 | 36.54517 | -7.94822 | 35956 ft | 444 kts | 348° |
| 2026-04-29 17:45 | 36.60675 | -7.95523 | 35949 ft | 443 kts | 348° |
| 2026-04-29 17:45 | 36.66826 | -7.96223 | 35952 ft | 443 kts | 348° |
| 2026-04-29 17:46 | 36.72956 | -7.96923 | 35970 ft | 442 kts | 348° |
| 2026-04-29 17:46 | 36.79093 | -7.97624 | 35948 ft | 442 kts | 348° |
| 2026-04-29 17:47 | 36.85188 | -7.98322 | 35941 ft | 442 kts | 348° |
| 2026-04-29 17:47 | 36.91313 | -7.99025 | 35939 ft | 442 kts | 348° |
| 2026-04-29 17:48 | 36.97436 | -7.99728 | 35975 ft | 441 kts | 347° |
| 2026-04-29 17:48 | 37.03561 | -8.00433 | 35948 ft | 442 kts | 347° |
| 2026-04-29 17:49 | 37.09685 | -8.01139 | 35938 ft | 442 kts | 347° |
| 2026-04-29 17:49 | 37.15810 | -8.01845 | 35941 ft | 442 kts | 347° |
| 2026-04-29 17:50 | 37.21903 | -8.02550 | 35952 ft | 442 kts | 347° |
| 2026-04-29 17:50 | 37.28073 | -8.03265 | 35936 ft | 442 kts | 347° |
| 2026-04-29 17:51 | 37.34168 | -8.03972 | 35922 ft | 443 kts | 347° |
| 2026-04-29 17:51 | 37.40314 | -8.04685 | 35929 ft | 442 kts | 347° |
| 2026-04-29 17:52 | 37.46445 | -8.05398 | 35938 ft | 442 kts | 347° |
| 2026-04-29 17:52 | 37.52579 | -8.06113 | 35927 ft | 442 kts | 347° |
| 2026-04-29 17:53 | 37.58709 | -8.06829 | 35924 ft | 442 kts | 347° |
| 2026-04-29 17:53 | 37.64836 | -8.07545 | 35928 ft | 442 kts | 347° |
| 2026-04-29 17:54 | 37.70955 | -8.08262 | 35930 ft | 442 kts | 347° |
| 2026-04-29 17:54 | 37.77040 | -8.08976 | 35917 ft | 442 kts | 347° |
| 2026-04-29 17:55 | 37.83155 | -8.09695 | 35924 ft | 441 kts | 347° |
| 2026-04-29 17:55 | 37.89282 | -8.10416 | 35915 ft | 441 kts | 347° |
| 2026-04-29 17:56 | 37.95420 | -8.11140 | 35919 ft | 442 kts | 347° |
| 2026-04-29 17:56 | 38.01513 | -8.11861 | 35925 ft | 442 kts | 347° |
| 2026-04-29 17:57 | 38.07651 | -8.12586 | 35914 ft | 443 kts | 347° |
| 2026-04-29 17:57 | 38.13795 | -8.13314 | 35916 ft | 443 kts | 346° |
| 2026-04-29 17:58 | 38.19933 | -8.14043 | 35916 ft | 443 kts | 347° |
| 2026-04-29 17:58 | 38.26080 | -8.14774 | 35905 ft | 443 kts | 346° |
| 2026-04-29 17:59 | 38.32185 | -8.15501 | 35915 ft | 443 kts | 347° |
| 2026-04-29 17:59 | 38.38325 | -8.16233 | 35937 ft | 443 kts | 347° |
| 2026-04-29 18:00 | 38.44480 | -8.16969 | 35922 ft | 443 kts | 347° |
| 2026-04-29 18:00 | 38.50635 | -8.17706 | 35911 ft | 444 kts | 347° |
| 2026-04-29 18:01 | 38.56749 | -8.18440 | 35915 ft | 444 kts | 347° |
| 2026-04-29 18:01 | 38.62911 | -8.19180 | 35929 ft | 444 kts | 347° |
| 2026-04-29 18:02 | 38.68035 | -8.19797 | 35919 ft | 445 kts | 347° |
| 2026-04-29 18:02 | 38.74202 | -8.20540 | 35903 ft | 445 kts | 347° |
| 2026-04-29 18:03 | 38.80377 | -8.21285 | 35908 ft | 444 kts | 347° |
| 2026-04-29 18:03 | 38.86536 | -8.22030 | 35911 ft | 445 kts | 347° |
| 2026-04-29 18:04 | 38.92694 | -8.22776 | 35906 ft | 444 kts | 347° |
| 2026-04-29 18:04 | 38.98856 | -8.23524 | 35896 ft | 445 kts | 347° |
| 2026-04-29 18:05 | 39.04988 | -8.24269 | 35896 ft | 444 kts | 347° |
| 2026-04-29 18:05 | 39.11151 | -8.25021 | 35894 ft | 445 kts | 348° |
| 2026-04-29 18:06 | 39.17321 | -8.25773 | 35890 ft | 445 kts | 348° |
| 2026-04-29 18:06 | 39.23483 | -8.26526 | 35890 ft | 445 kts | 348° |
| 2026-04-29 18:07 | 39.29646 | -8.27281 | 35909 ft | 444 kts | 349° |
| 2026-04-29 18:07 | 39.35823 | -8.28039 | 35903 ft | 445 kts | 349° |
| 2026-04-29 18:08 | 39.41988 | -8.28796 | 35883 ft | 445 kts | 349° |
| 2026-04-29 18:08 | 39.48110 | -8.29549 | 35886 ft | 445 kts | 349° |
| 2026-04-29 18:09 | 39.54282 | -8.30311 | 35899 ft | 445 kts | 349° |
| 2026-04-29 18:09 | 39.60411 | -8.31068 | 35893 ft | 445 kts | 349° |
| 2026-04-29 18:10 | 39.66574 | -8.31830 | 35893 ft | 444 kts | 349° |
| 2026-04-29 18:10 | 39.72723 | -8.32592 | 35891 ft | 444 kts | 349° |
| 2026-04-29 18:11 | 39.78870 | -8.33356 | 35905 ft | 443 kts | 350° |
| 2026-04-29 18:11 | 39.85024 | -8.34122 | 35901 ft | 443 kts | 350° |
| 2026-04-29 18:12 | 39.91118 | -8.34881 | 35903 ft | 442 kts | 349° |
| 2026-04-29 18:12 | 39.97250 | -8.35647 | 35912 ft | 442 kts | 350° |
| 2026-04-29 18:13 | 40.03382 | -8.36414 | 35895 ft | 442 kts | 350° |
| 2026-04-29 18:13 | 40.09502 | -8.37181 | 35889 ft | 441 kts | 350° |
| 2026-04-29 18:14 | 40.15588 | -8.37945 | 35897 ft | 440 kts | 350° |
| 2026-04-29 18:14 | 40.21695 | -8.38713 | 35894 ft | 440 kts | 351° |
| 2026-04-29 18:15 | 40.27797 | -8.39482 | 35889 ft | 440 kts | 351° |
| 2026-04-29 18:15 | 40.33898 | -8.40250 | 35890 ft | 440 kts | 351° |
| 2026-04-29 18:16 | 40.39991 | -8.41029 | 35883 ft | 440 kts | 351° |
| 2026-04-29 18:16 | 40.46090 | -8.41802 | 35889 ft | 440 kts | 351° |
| 2026-04-29 18:17 | 40.52142 | -8.42566 | 35885 ft | 440 kts | 351° |
| 2026-04-29 18:17 | 40.58245 | -8.43339 | 35890 ft | 440 kts | 351° |
| 2026-04-29 18:18 | 40.64350 | -8.44117 | 35893 ft | 440 kts | 351° |
| 2026-04-29 18:18 | 40.70446 | -8.44895 | 35883 ft | 440 kts | 351° |
| 2026-04-29 18:19 | 40.76503 | -8.45669 | 35896 ft | 440 kts | 351° |
| 2026-04-29 18:19 | 40.82614 | -8.46452 | 35872 ft | 441 kts | 351° |
| 2026-04-29 18:20 | 40.88726 | -8.47237 | 35863 ft | 441 kts | 351° |
| 2026-04-29 18:20 | 40.94849 | -8.48024 | 35858 ft | 442 kts | 351° |
| 2026-04-29 18:21 | 41.00969 | -8.48812 | 35861 ft | 442 kts | 351° |
| 2026-04-29 18:21 | 41.07104 | -8.49604 | 35869 ft | 443 kts | 352° |
| 2026-04-29 18:22 | 41.13245 | -8.50398 | 35861 ft | 444 kts | 352° |
| 2026-04-29 18:22 | 41.19401 | -8.51195 | 35865 ft | 445 kts | 352° |
| 2026-04-29 18:23 | 41.25528 | -8.51990 | 35865 ft | 445 kts | 352° |
| 2026-04-29 18:23 | 41.31696 | -8.52792 | 35857 ft | 445 kts | 352° |
| 2026-04-29 18:24 | 41.37855 | -8.53594 | 35859 ft | 444 kts | 352° |
| 2026-04-29 18:24 | 41.44015 | -8.54398 | 35867 ft | 445 kts | 352° |
| 2026-04-29 18:25 | 41.50175 | -8.55204 | 35854 ft | 446 kts | 352° |
| 2026-04-29 18:25 | 41.56356 | -8.56013 | 35864 ft | 446 kts | 352° |
| 2026-04-29 18:26 | 41.62504 | -8.56820 | 35865 ft | 446 kts | 352° |
| 2026-04-29 18:26 | 41.68685 | -8.57633 | 35871 ft | 446 kts | 352° |
| 2026-04-29 18:27 | 41.74873 | -8.58450 | 35859 ft | 447 kts | 352° |
| 2026-04-29 18:27 | 41.81067 | -8.59263 | 35852 ft | 448 kts | 354° |
| 2026-04-29 18:28 | 41.87282 | -8.58562 | 35863 ft | 452 kts | 13° |
| 2026-04-29 18:28 | 41.93206 | -8.55679 | 35847 ft | 453 kts | 21° |
| 2026-04-29 18:29 | 41.98995 | -8.52474 | 35848 ft | 452 kts | 21° |
| 2026-04-29 18:29 | 42.04813 | -8.49277 | 35842 ft | 451 kts | 21° |
| 2026-04-29 18:30 | 42.10641 | -8.46119 | 35864 ft | 451 kts | 21° |
| 2026-04-29 18:30 | 42.16472 | -8.42977 | 35846 ft | 451 kts | 21° |
| 2026-04-29 18:31 | 42.22297 | -8.39836 | 35853 ft | 451 kts | 21° |
| 2026-04-29 18:31 | 42.28133 | -8.36683 | 35845 ft | 451 kts | 21° |
| 2026-04-29 18:32 | 42.33969 | -8.33521 | 35831 ft | 452 kts | 21° |
| 2026-04-29 18:32 | 42.42736 | -8.28758 | 35839 ft | 453 kts | 21° |
| 2026-04-29 18:33 | 42.48586 | -8.25573 | 35838 ft | 453 kts | 21° |
| 2026-04-29 18:33 | 42.54403 | -8.22398 | 35838 ft | 454 kts | 22° |
| 2026-04-29 18:34 | 42.59324 | -8.19708 | 35835 ft | 454 kts | 22° |
| 2026-04-29 18:34 | 42.66145 | -8.15972 | 35832 ft | 455 kts | 22° |
| 2026-04-29 18:35 | 42.72021 | -8.12745 | 35831 ft | 455 kts | 22° |
| 2026-04-29 18:35 | 42.77893 | -8.09515 | 35826 ft | 455 kts | 22° |
| 2026-04-29 18:36 | 42.83731 | -8.06297 | 35837 ft | 455 kts | 22° |
| 2026-04-29 18:36 | 42.89609 | -8.03050 | 35836 ft | 456 kts | 22° |
| 2026-04-29 18:37 | 42.95494 | -7.99792 | 35836 ft | 456 kts | 22° |
| 2026-04-29 18:37 | 43.01394 | -7.96519 | 35829 ft | 457 kts | 22° |
| 2026-04-29 18:38 | 43.07247 | -7.93265 | 35835 ft | 457 kts | 22° |
| 2026-04-29 18:38 | 43.13141 | -7.89983 | 35827 ft | 457 kts | 22° |
| 2026-04-29 18:39 | 43.19038 | -7.86691 | 35833 ft | 457 kts | 21° |
| 2026-04-29 18:39 | 43.24935 | -7.83392 | 35827 ft | 458 kts | 21° |
| 2026-04-29 18:40 | 43.30831 | -7.80088 | 35825 ft | 458 kts | 21° |
| 2026-04-29 18:40 | 43.36727 | -7.76776 | 35826 ft | 458 kts | 21° |
| 2026-04-29 18:41 | 43.48496 | -7.70145 | 35830 ft | 458 kts | 21° |
| 2026-04-29 18:42 | 43.54389 | -7.66814 | 35826 ft | 458 kts | 21° |
| 2026-04-29 18:42 | 43.60294 | -7.63469 | 35828 ft | 458 kts | 22° |
| 2026-04-29 18:43 | 43.66191 | -7.60121 | 35831 ft | 458 kts | 22° |
| 2026-04-29 18:43 | 43.72052 | -7.56788 | 35834 ft | 458 kts | 21° |
| 2026-04-29 18:44 | 43.77940 | -7.53430 | 35840 ft | 458 kts | 21° |
| 2026-04-29 18:44 | 43.83839 | -7.50061 | 35841 ft | 458 kts | 22° |
| 2026-04-29 18:45 | 43.89744 | -7.46680 | 35843 ft | 459 kts | 22° |
| 2026-04-29 18:45 | 43.95647 | -7.43293 | 35842 ft | 459 kts | 22° |
| 2026-04-29 18:46 | 44.01561 | -7.39892 | 35847 ft | 460 kts | 22° |
| 2026-04-29 18:46 | 44.07441 | -7.36504 | 35844 ft | 461 kts | 22° |
| 2026-04-29 18:47 | 44.13369 | -7.33081 | 35839 ft | 462 kts | 22° |
| 2026-04-29 18:47 | 44.19334 | -7.29628 | 35847 ft | 462 kts | 22° |
| 2026-04-29 18:48 | 44.25289 | -7.26174 | 35839 ft | 463 kts | 22° |
| 2026-04-29 18:48 | 44.31199 | -7.22739 | 35842 ft | 463 kts | 22° |
| 2026-04-29 18:49 | 44.37165 | -7.19263 | 35833 ft | 464 kts | 22° |
| 2026-04-29 18:49 | 44.43125 | -7.15783 | 35846 ft | 464 kts | 22° |
| 2026-04-29 18:50 | 44.49055 | -7.12313 | 35850 ft | 464 kts | 22° |
| 2026-04-29 18:50 | 44.54053 | -7.09382 | 35850 ft | 465 kts | 22° |
| 2026-04-29 18:51 | 44.59990 | -7.05894 | 35850 ft | 465 kts | 22° |
| 2026-04-29 18:51 | 44.65957 | -7.02380 | 35849 ft | 465 kts | 22° |
| 2026-04-29 18:52 | 44.71923 | -6.98858 | 35848 ft | 465 kts | 22° |
| 2026-04-29 18:52 | 44.77896 | -6.95324 | 35850 ft | 465 kts | 22° |
| 2026-04-29 18:53 | 44.83873 | -6.91782 | 35847 ft | 465 kts | 22° |
| 2026-04-29 18:53 | 44.89888 | -6.88402 | 35851 ft | 465 kts | 21° |
| 2026-04-29 18:54 | 44.95896 | -6.85130 | 35845 ft | 465 kts | 21° |
| 2026-04-29 18:54 | 45.01935 | -6.81824 | 35855 ft | 465 kts | 21° |
| 2026-04-29 18:55 | 45.07942 | -6.78505 | 35853 ft | 466 kts | 21° |
| 2026-04-29 18:55 | 45.13979 | -6.75151 | 35852 ft | 466 kts | 21° |
| 2026-04-29 18:56 | 45.20020 | -6.71786 | 35863 ft | 466 kts | 22° |
| 2026-04-29 18:56 | 45.26081 | -6.68402 | 35853 ft | 467 kts | 22° |
| 2026-04-29 18:57 | 45.32098 | -6.65036 | 35858 ft | 468 kts | 22° |
| 2026-04-29 18:57 | 45.38156 | -6.61639 | 35855 ft | 468 kts | 22° |
| 2026-04-29 18:58 | 45.44222 | -6.58230 | 35847 ft | 469 kts | 22° |
| 2026-04-29 18:58 | 45.50303 | -6.54804 | 35857 ft | 469 kts | 22° |
| 2026-04-29 18:59 | 45.56337 | -6.51397 | 35859 ft | 470 kts | 22° |
| 2026-04-29 18:59 | 45.62433 | -6.47948 | 35865 ft | 471 kts | 22° |
| 2026-04-29 19:00 | 45.68523 | -6.44492 | 35859 ft | 471 kts | 22° |
| 2026-04-29 19:00 | 45.74618 | -6.41027 | 35860 ft | 472 kts | 22° |
| 2026-04-29 19:01 | 45.80730 | -6.37543 | 35867 ft | 472 kts | 22° |
| 2026-04-29 19:01 | 45.86796 | -6.34078 | 35859 ft | 472 kts | 22° |
| 2026-04-29 19:02 | 45.91916 | -6.31147 | 35840 ft | 472 kts | 23° |
| 2026-04-29 19:02 | 45.99005 | -6.27079 | 35859 ft | 472 kts | 23° |
| 2026-04-29 19:03 | 46.05106 | -6.23568 | 35864 ft | 472 kts | 23° |
| 2026-04-29 19:03 | 46.11205 | -6.20050 | 35870 ft | 472 kts | 23° |
| 2026-04-29 19:04 | 46.17306 | -6.16523 | 35869 ft | 472 kts | 23° |
| 2026-04-29 19:04 | 46.23414 | -6.12983 | 35878 ft | 473 kts | 24° |
| 2026-04-29 19:05 | 46.29520 | -6.09437 | 35872 ft | 473 kts | 24° |
| 2026-04-29 19:05 | 46.35626 | -6.05881 | 35877 ft | 473 kts | 24° |
| 2026-04-29 19:06 | 46.41732 | -6.02317 | 35859 ft | 473 kts | 24° |
| 2026-04-29 19:07 | 46.50833 | -5.96989 | 35879 ft | 472 kts | 24° |
| 2026-04-29 19:07 | 46.56924 | -5.93411 | 35883 ft | 472 kts | 24° |
| 2026-04-29 19:08 | 46.63025 | -5.89820 | 35891 ft | 472 kts | 24° |
| 2026-04-29 19:08 | 46.69121 | -5.86222 | 35885 ft | 473 kts | 24° |
| 2026-04-29 19:09 | 46.75215 | -5.82617 | 35890 ft | 473 kts | 24° |
| 2026-04-29 19:09 | 46.81320 | -5.78997 | 35888 ft | 473 kts | 24° |
| 2026-04-29 19:10 | 46.87378 | -5.75396 | 35893 ft | 473 kts | 24° |
| 2026-04-29 19:10 | 46.93476 | -5.71761 | 35867 ft | 473 kts | 24° |
| 2026-04-29 19:11 | 46.99563 | -5.68125 | 35888 ft | 472 kts | 24° |
| 2026-04-29 19:11 | 47.05647 | -5.64482 | 35915 ft | 472 kts | 24° |
| 2026-04-29 19:12 | 47.11690 | -5.60854 | 35890 ft | 471 kts | 24° |
| 2026-04-29 19:12 | 47.17749 | -5.57207 | 35895 ft | 471 kts | 24° |
| 2026-04-29 19:13 | 47.23813 | -5.53549 | 35900 ft | 470 kts | 24° |
| 2026-04-29 19:13 | 47.29858 | -5.49893 | 35912 ft | 469 kts | 24° |
| 2026-04-29 19:14 | 47.35921 | -5.46217 | 35906 ft | 469 kts | 24° |
| 2026-04-29 19:14 | 47.41912 | -5.42575 | 35914 ft | 468 kts | 25° |
| 2026-04-29 19:15 | 47.47933 | -5.38906 | 35911 ft | 467 kts | 24° |
| 2026-04-29 19:15 | 47.53943 | -5.35235 | 35914 ft | 467 kts | 24° |
| 2026-04-29 19:16 | 47.59949 | -5.31557 | 35918 ft | 467 kts | 24° |
| 2026-04-29 19:16 | 47.65913 | -5.27895 | 35918 ft | 466 kts | 24° |
| 2026-04-29 19:17 | 47.71917 | -5.24201 | 35923 ft | 466 kts | 25° |
| 2026-04-29 19:17 | 47.77914 | -5.20500 | 35921 ft | 466 kts | 25° |
| 2026-04-29 19:18 | 47.83865 | -5.16819 | 35927 ft | 466 kts | 25° |
| 2026-04-29 19:18 | 47.89847 | -5.13110 | 35929 ft | 465 kts | 25° |
| 2026-04-29 19:19 | 47.95826 | -5.09394 | 35928 ft | 465 kts | 25° |
| 2026-04-29 19:19 | 48.01932 | -5.06143 | 35925 ft | 466 kts | 19° |
| 2026-04-29 19:20 | 48.08131 | -5.03268 | 35929 ft | 466 kts | 19° |
| 2026-04-29 19:20 | 48.14326 | -5.00374 | 35941 ft | 466 kts | 20° |
| 2026-04-29 19:21 | 48.20505 | -4.97407 | 35933 ft | 466 kts | 20° |
| 2026-04-29 19:21 | 48.26637 | -4.94418 | 35943 ft | 466 kts | 20° |
| 2026-04-29 19:22 | 48.32805 | -4.91397 | 35945 ft | 466 kts | 20° |
| 2026-04-29 19:22 | 48.38977 | -4.88369 | 35947 ft | 466 kts | 20° |
| 2026-04-29 19:23 | 48.45150 | -4.85334 | 35948 ft | 466 kts | 20° |
| 2026-04-29 19:23 | 48.51318 | -4.82295 | 35957 ft | 466 kts | 20° |
| 2026-04-29 19:24 | 48.57498 | -4.79242 | 35957 ft | 466 kts | 21° |
| 2026-04-29 19:24 | 48.63632 | -4.76205 | 35962 ft | 466 kts | 21° |
| 2026-04-29 19:25 | 48.69793 | -4.73146 | 35966 ft | 466 kts | 21° |
| 2026-04-29 19:25 | 48.75953 | -4.70079 | 35969 ft | 466 kts | 21° |
| 2026-04-29 19:26 | 48.82108 | -4.67007 | 35971 ft | 465 kts | 21° |
| 2026-04-29 19:26 | 48.88220 | -4.63948 | 35973 ft | 465 kts | 21° |
| 2026-04-29 19:27 | 48.94367 | -4.60864 | 35972 ft | 465 kts | 21° |
| 2026-04-29 19:27 | 49.00514 | -4.57772 | 35970 ft | 465 kts | 21° |
| 2026-04-29 19:28 | 49.06660 | -4.54672 | 35975 ft | 464 kts | 21° |
| 2026-04-29 19:28 | 49.12797 | -4.51569 | 35978 ft | 464 kts | 21° |
| 2026-04-29 19:29 | 49.18891 | -4.48479 | 35985 ft | 464 kts | 21° |
| 2026-04-29 19:29 | 49.25026 | -4.45362 | 35987 ft | 464 kts | 21° |
| 2026-04-29 19:30 | 49.31158 | -4.42236 | 35984 ft | 464 kts | 21° |
| 2026-04-29 19:30 | 49.37291 | -4.39102 | 35999 ft | 464 kts | 21° |
| 2026-04-29 19:31 | 49.43424 | -4.35960 | 36000 ft | 465 kts | 21° |
| 2026-04-29 19:31 | 49.49560 | -4.32808 | 36014 ft | 465 kts | 21° |
| 2026-04-29 19:32 | 49.55702 | -4.29645 | 36009 ft | 465 kts | 21° |
| 2026-04-29 19:32 | 49.61849 | -4.26470 | 36008 ft | 465 kts | 21° |
| 2026-04-29 19:33 | 49.67955 | -4.23309 | 36026 ft | 465 kts | 21° |
| 2026-04-29 19:33 | 49.74091 | -4.20123 | 36017 ft | 465 kts | 21° |
| 2026-04-29 19:34 | 49.80229 | -4.16928 | 36033 ft | 465 kts | 21° |
| 2026-04-29 19:34 | 49.86366 | -4.13725 | 36039 ft | 464 kts | 21° |
| 2026-04-29 19:35 | 49.92451 | -4.10540 | 36035 ft | 464 kts | 21° |
| 2026-04-29 19:35 | 49.98567 | -4.07331 | 36030 ft | 463 kts | 21° |
| 2026-04-29 19:36 | 50.04657 | -4.04127 | 36049 ft | 462 kts | 21° |
| 2026-04-29 19:36 | 50.10752 | -4.00911 | 36067 ft | 462 kts | 21° |
| 2026-04-29 19:37 | 50.16844 | -3.97688 | 36064 ft | 462 kts | 21° |
| 2026-04-29 19:37 | 50.22921 | -3.94465 | 36066 ft | 462 kts | 21° |
| 2026-04-29 19:38 | 50.29015 | -3.91224 | 36079 ft | 462 kts | 21° |
| 2026-04-29 19:38 | 50.35100 | -3.87979 | 36079 ft | 461 kts | 21° |
| 2026-04-29 19:39 | 50.41141 | -3.84749 | 36096 ft | 460 kts | 21° |
| 2026-04-29 19:39 | 50.47206 | -3.81498 | 36103 ft | 460 kts | 21° |
| 2026-04-29 19:40 | 50.53252 | -3.78246 | 36101 ft | 459 kts | 21° |
| 2026-04-29 19:40 | 50.59300 | -3.74986 | 36106 ft | 458 kts | 21° |
| 2026-04-29 19:41 | 50.65321 | -3.71732 | 36112 ft | 457 kts | 21° |
| 2026-04-29 19:41 | 50.71296 | -3.68493 | 36121 ft | 455 kts | 21° |
| 2026-04-29 19:42 | 50.76275 | -3.65788 | 36125 ft | 453 kts | 21° |
| 2026-04-29 19:42 | 50.82234 | -3.62542 | 36126 ft | 451 kts | 21° |
| 2026-04-29 19:43 | 50.88181 | -3.59294 | 36131 ft | 450 kts | 22° |
| 2026-04-29 19:43 | 50.94056 | -3.56076 | 36138 ft | 449 kts | 22° |
| 2026-04-29 19:44 | 50.99984 | -3.52819 | 35579 ft | 453 kts | 22° |
| 2026-04-29 19:44 | 51.02958 | -3.51182 | 35066 ft | 452 kts | 22° |
| 2026-04-29 19:44 | 51.05933 | -3.49544 | 34518 ft | 452 kts | 22° |
| 2026-04-29 19:44 | 51.08908 | -3.47902 | 33924 ft | 453 kts | 22° |
| 2026-04-29 19:45 | 51.11894 | -3.46251 | 33267 ft | 455 kts | 22° |
| 2026-04-29 19:45 | 51.14892 | -3.44593 | 32635 ft | 455 kts | 22° |
| 2026-04-29 19:45 | 51.17890 | -3.42932 | 31987 ft | 456 kts | 22° |
| 2026-04-29 19:45 | 51.20895 | -3.41264 | 31368 ft | 457 kts | 22° |
| 2026-04-29 19:46 | 51.23863 | -3.39616 | 30726 ft | 458 kts | 22° |
| 2026-04-29 19:46 | 51.26882 | -3.37936 | 30017 ft | 460 kts | 22° |
| 2026-04-29 19:46 | 51.29900 | -3.36254 | 29452 ft | 457 kts | 22° |
| 2026-04-29 19:46 | 51.32897 | -3.34584 | 28936 ft | 452 kts | 22° |
| 2026-04-29 19:47 | 51.35849 | -3.32937 | 28436 ft | 447 kts | 22° |
| 2026-04-29 19:47 | 51.38764 | -3.31306 | 27948 ft | 441 kts | 22° |
| 2026-04-29 19:47 | 51.41548 | -3.29451 | 27430 ft | 434 kts | 31° |
| 2026-04-29 19:47 | 51.44117 | -3.26900 | 26941 ft | 426 kts | 41° |
| 2026-04-29 19:48 | 51.46435 | -3.23982 | 26453 ft | 421 kts | 42° |
| 2026-04-29 19:48 | 51.47940 | -3.22041 | 26135 ft | 419 kts | 43° |
| 2026-04-29 19:48 | 51.50923 | -3.18147 | 25513 ft | 414 kts | 43° |
| 2026-04-29 19:48 | 51.53153 | -3.15218 | 25035 ft | 411 kts | 43° |
| 2026-04-29 19:49 | 51.55362 | -3.12314 | 24566 ft | 409 kts | 43° |
| 2026-04-29 19:49 | 51.57561 | -3.09423 | 24222 ft | 407 kts | 43° |
| 2026-04-29 19:49 | 51.59762 | -3.06531 | 23725 ft | 406 kts | 43° |
| 2026-04-29 19:49 | 51.61937 | -3.03672 | 23220 ft | 403 kts | 43° |
| 2026-04-29 19:50 | 51.64107 | -3.00820 | 22741 ft | 400 kts | 43° |
| 2026-04-29 19:50 | 51.66254 | -2.97995 | 22278 ft | 397 kts | 43° |
| 2026-04-29 19:50 | 51.68382 | -2.95192 | 21813 ft | 394 kts | 44° |
| 2026-04-29 19:50 | 51.70468 | -2.92440 | 21356 ft | 391 kts | 44° |
| 2026-04-29 19:51 | 51.72562 | -2.89674 | 20880 ft | 388 kts | 44° |
| 2026-04-29 19:51 | 51.74639 | -2.86927 | 20441 ft | 384 kts | 44° |
| 2026-04-29 19:51 | 51.76697 | -2.84202 | 19997 ft | 381 kts | 44° |
| 2026-04-29 19:51 | 51.78741 | -2.81492 | 19552 ft | 378 kts | 44° |
| 2026-04-29 19:52 | 51.80751 | -2.78752 | 18787 ft | 379 kts | 46° |
| 2026-04-29 19:52 | 51.82723 | -2.75928 | 18161 ft | 379 kts | 47° |
| 2026-04-29 19:52 | 51.84673 | -2.73091 | 17663 ft | 375 kts | 47° |
| 2026-04-29 19:52 | 51.86580 | -2.70310 | 17212 ft | 371 kts | 47° |
| 2026-04-29 19:53 | 51.88512 | -2.67500 | 16767 ft | 366 kts | 47° |
| 2026-04-29 19:53 | 51.90397 | -2.64762 | 16317 ft | 363 kts | 47° |
| 2026-04-29 19:53 | 51.92243 | -2.62085 | 15896 ft | 359 kts | 47° |
| 2026-04-29 19:53 | 51.94094 | -2.59401 | 15465 ft | 356 kts | 47° |
| 2026-04-29 19:54 | 51.97760 | -2.54082 | 14615 ft | 350 kts | 47° |
| 2026-04-29 19:54 | 51.99571 | -2.51452 | 14194 ft | 348 kts | 47° |
| 2026-04-29 19:54 | 52.01371 | -2.48836 | 13724 ft | 346 kts | 47° |
| 2026-04-29 19:55 | 52.03154 | -2.46241 | 13265 ft | 343 kts | 47° |
| 2026-04-29 19:55 | 52.04930 | -2.43652 | 12817 ft | 340 kts | 46° |
| 2026-04-29 19:55 | 52.06686 | -2.41092 | 12394 ft | 337 kts | 46° |
| 2026-04-29 19:55 | 52.08402 | -2.38588 | 12007 ft | 334 kts | 46° |
| 2026-04-29 19:56 | 52.10141 | -2.36080 | 11583 ft | 333 kts | 43° |
| 2026-04-29 19:56 | 52.12166 | -2.34179 | 11123 ft | 338 kts | 28° |
| 2026-04-29 19:56 | 52.14315 | -2.32749 | 10651 ft | 329 kts | 26° |
| 2026-04-29 19:56 | 52.16425 | -2.31435 | 10215 ft | 320 kts | 25° |
| 2026-04-29 19:57 | 52.18484 | -2.30173 | 9732 ft | 313 kts | 25° |
| 2026-04-29 19:57 | 52.19839 | -2.29350 | 9438 ft | 313 kts | 25° |
| 2026-04-29 19:57 | 52.22555 | -2.27712 | 8824 ft | 315 kts | 25° |
| 2026-04-29 19:57 | 52.24597 | -2.26496 | 8324 ft | 308 kts | 25° |
| 2026-04-29 19:58 | 52.26579 | -2.25333 | 7929 ft | 298 kts | 25° |
| 2026-04-29 19:58 | 52.28512 | -2.24211 | 7588 ft | 289 kts | 25° |
| 2026-04-29 19:58 | 52.30391 | -2.23130 | 7269 ft | 281 kts | 25° |
| 2026-04-29 19:58 | 52.32213 | -2.22093 | 6969 ft | 274 kts | 25° |
| 2026-04-29 19:59 | 52.33994 | -2.21092 | 6674 ft | 268 kts | 25° |
| 2026-04-29 19:59 | 52.35751 | -2.20113 | 6425 ft | 266 kts | 25° |
| 2026-04-29 19:59 | 52.37498 | -2.19151 | 6196 ft | 263 kts | 25° |
| 2026-04-29 19:59 | 52.39213 | -2.18224 | 5955 ft | 261 kts | 25° |
| 2026-04-29 20:00 | 52.40936 | -2.17306 | 5690 ft | 260 kts | 25° |
| 2026-04-29 20:00 | 52.42657 | -2.16410 | 5403 ft | 256 kts | 25° |
| 2026-04-29 20:00 | 52.44349 | -2.15557 | 5167 ft | 253 kts | 25° |
| 2026-04-29 20:00 | 52.46028 | -2.14723 | 4944 ft | 250 kts | 25° |
| 2026-04-29 20:01 | 52.47676 | -2.13910 | 4804 ft | 243 kts | 25° |
| 2026-04-29 20:01 | 52.49238 | -2.13062 | 4650 ft | 231 kts | 36° |
| 2026-04-29 20:01 | 52.50446 | -2.11530 | 4561 ft | 215 kts | 51° |
| 2026-04-29 20:01 | 52.51553 | -2.09886 | 4422 ft | 214 kts | 50° |
| 2026-04-29 20:02 | 52.52660 | -2.08266 | 4308 ft | 213 kts | 50° |
| 2026-04-29 20:02 | 52.53773 | -2.06642 | 4163 ft | 212 kts | 50° |
| 2026-04-29 20:02 | 52.54851 | -2.05090 | 4031 ft | 201 kts | 50° |
| 2026-04-29 20:02 | 52.55540 | -2.04113 | 3944 ft | 194 kts | 50° |
| 2026-04-29 20:03 | 52.56685 | -2.02093 | 3794 ft | 166 kts | 74° |
| 2026-04-29 20:03 | 52.57005 | -2.00349 | 3709 ft | 159 kts | 80° |
| 2026-04-29 20:03 | 52.57299 | -1.98603 | 3627 ft | 157 kts | 80° |
| 2026-04-29 20:03 | 52.57586 | -1.96888 | 3625 ft | 157 kts | 80° |
| 2026-04-29 20:04 | 52.57878 | -1.95127 | 3530 ft | 161 kts | 80° |
| 2026-04-29 20:04 | 52.58170 | -1.93350 | 3422 ft | 159 kts | 80° |
| 2026-04-29 20:04 | 52.58445 | -1.91617 | 3309 ft | 154 kts | 86° |
| 2026-04-29 20:04 | 52.58172 | -1.90012 | 3233 ft | 153 kts | 127° |
| 2026-04-29 20:05 | 52.57402 | -1.88729 | 3034 ft | 161 kts | 131° |
| 2026-04-29 20:05 | 52.56558 | -1.87508 | 2816 ft | 161 kts | 133° |
| 2026-04-29 20:05 | 52.55700 | -1.86358 | 2607 ft | 158 kts | 136° |
| 2026-04-29 20:05 | 52.54815 | -1.85319 | 2389 ft | 155 kts | 138° |
| 2026-04-29 20:06 | 52.53915 | -1.84325 | 2159 ft | 158 kts | 137° |
| 2026-04-29 20:06 | 52.52995 | -1.83291 | 2004 ft | 161 kts | 137° |
| 2026-04-29 20:06 | 52.52073 | -1.82294 | 1776 ft | 157 kts | 138° |
| 2026-04-29 20:06 | 52.51171 | -1.81293 | 1490 ft | 155 kts | 137° |
| 2026-04-29 20:07 | 52.50302 | -1.80291 | 1323 ft | 152 kts | 137° |
| 2026-04-29 20:07 | 52.49455 | -1.79342 | 1178 ft | 145 kts | 137° |
| 2026-04-29 20:07 | 52.48613 | -1.78391 | 901 ft | 148 kts | 139° |
| 2026-04-29 20:07 | 52.47772 | -1.77456 | 718 ft | 147 kts | 140° |
| 2026-04-29 20:08 | 52.46911 | -1.76494 | 478 ft | 152 kts | 139° |
| 2026-04-29 20:08 | 52.46329 | -1.75852 | 357 ft | 151 kts | 140° |
| 2026-04-29 20:08 | 52.45324 | -1.74732 | 323 ft | 93 kts | 146° |
| 2026-04-29 20:08 | 52.44997 | -1.74369 | 326 ft | 23 kts | 146° |
| 2026-04-29 20:09 | 52.44972 | -1.74342 | 325 ft | 7 kts | 146° |
| 2026-04-29 20:09 | 52.44946 | -1.74235 | 327 ft | 14 kts | 80° |
| 2026-04-29 20:09 | 52.44971 | -1.74089 | 324 ft | 13 kts | 76° |
| 2026-04-29 20:09 | 52.44989 | -1.73957 | 323 ft | 9 kts | 77° |
| 2026-04-29 20:10 | 52.45022 | -1.73867 | 322 ft | 9 kts | 53° |
| 2026-04-29 20:10 | 52.45057 | -1.73786 | 322 ft | 9 kts | 56° |
| 2026-04-29 20:10 | 52.45100 | -1.73712 | 322 ft | 6 kts | 41° |
| 2026-04-29 20:10 | 52.45136 | -1.73702 | 322 ft | 6 kts | 336° |
| 2026-04-29 20:11 | 52.45162 | -1.73731 | 322 ft | 3 kts | 326° |
| 2026-04-29 20:11 | 52.45176 | -1.73745 | 322 ft | 1 kts | 326° |
| 2026-04-29 20:11 | 52.45176 | -1.73746 | 322 ft | 0 kts | 326° |